sensor_id;sensor_type;location;lat;lon;timestamp;pressure;altitude;pressure_sealevel;temperature;humidity
4346;BME280;2186;49.866;7.986;2022-12-17T00:01:27;100882.63;;;-9.35;94.96
4346;BME280;2186;49.866;7.986;2022-12-17T00:04:12;100890.63;;;-9.45;93.91
4346;BME280;2186;49.866;7.986;2022-12-17T00:06:57;100891.13;;;-9.50;94.76
4346;BME280;2186;49.866;7.986;2022-12-17T00:09:41;100885.56;;;-9.43;95.69
4346;BME280;2186;49.866;7.986;2022-12-17T00:12:26;100891.78;;;-9.40;96.14
4346;BME280;2186;49.866;7.986;2022-12-17T00:15:11;100893.00;;;-9.48;95.25
4346;BME280;2186;49.866;7.986;2022-12-17T00:18:03;100899.59;;;-9.38;95.99
4346;BME280;2186;49.866;7.986;2022-12-17T00:20:55;100887.75;;;-9.49;94.57
4346;BME280;2186;49.866;7.986;2022-12-17T00:23:41;100898.78;;;-9.65;94.98
4346;BME280;2186;49.866;7.986;2022-12-17T00:26:26;100900.63;;;-9.49;95.39
4346;BME280;2186;49.866;7.986;2022-12-17T00:29:11;100909.09;;;-9.65;94.79
4346;BME280;2186;49.866;7.986;2022-12-17T00:31:57;100905.63;;;-9.66;95.09
4346;BME280;2186;49.866;7.986;2022-12-17T00:34:42;100915.72;;;-9.69;94.69
4346;BME280;2186;49.866;7.986;2022-12-17T00:37:27;100919.06;;;-9.57;95.44
4346;BME280;2186;49.866;7.986;2022-12-17T00:40:12;100918.84;;;-9.60;94.78
4346;BME280;2186;49.866;7.986;2022-12-17T00:43:04;100922.34;;;-9.59;95.31
4346;BME280;2186;49.866;7.986;2022-12-17T00:45:49;100922.03;;;-9.64;95.75
4346;BME280;2186;49.866;7.986;2022-12-17T00:48:35;100920.69;;;-9.72;94.98
4346;BME280;2186;49.866;7.986;2022-12-17T00:51:21;100935.97;;;-9.60;95.59
4346;BME280;2186;49.866;7.986;2022-12-17T00:54:07;100933.03;;;-9.66;94.95
4346;BME280;2186;49.866;7.986;2022-12-17T00:56:52;100943.25;;;-9.81;94.12
4346;BME280;2186;49.866;7.986;2022-12-17T00:59:37;100938.69;;;-9.72;94.62
4346;BME280;2186;49.866;7.986;2022-12-17T01:02:23;100938.69;;;-9.72;94.90
4346;BME280;2186;49.866;7.986;2022-12-17T01:05:09;100943.53;;;-9.76;95.60
4346;BME280;2186;49.866;7.986;2022-12-17T01:07:55;100943.63;;;-9.75;94.67
4346;BME280;2186;49.866;7.986;2022-12-17T01:10:41;100944.41;;;-9.76;95.09
4346;BME280;2186;49.866;7.986;2022-12-17T01:13:25;100947.00;;;-9.76;94.62
4346;BME280;2186;49.866;7.986;2022-12-17T01:16:13;100948.69;;;-9.90;94.27
4346;BME280;2186;49.866;7.986;2022-12-17T01:18:58;100954.06;;;-9.87;95.07
4346;BME280;2186;49.866;7.986;2022-12-17T01:21:44;100949.50;;;-10.04;94.25
4346;BME280;2186;49.866;7.986;2022-12-17T01:24:29;100960.75;;;-9.89;95.57
4346;BME280;2186;49.866;7.986;2022-12-17T01:27:14;100971.25;;;-9.86;96.03
4346;BME280;2186;49.866;7.986;2022-12-17T01:29:59;100965.50;;;-9.81;95.78
4346;BME280;2186;49.866;7.986;2022-12-17T01:32:44;100964.91;;;-9.77;95.26
4346;BME280;2186;49.866;7.986;2022-12-17T01:35:29;100964.91;;;-9.91;95.07
4346;BME280;2186;49.866;7.986;2022-12-17T01:38:16;100968.88;;;-9.96;95.18
4346;BME280;2186;49.866;7.986;2022-12-17T01:41:02;100970.84;;;-9.92;94.94
4346;BME280;2186;49.866;7.986;2022-12-17T01:43:48;100970.06;;;-9.91;95.27
4346;BME280;2186;49.866;7.986;2022-12-17T01:46:38;100964.44;;;-9.85;95.40
4346;BME280;2186;49.866;7.986;2022-12-17T01:49:25;100970.94;;;-9.90;95.10
4346;BME280;2186;49.866;7.986;2022-12-17T01:52:13;100974.72;;;-9.98;94.55
4346;BME280;2186;49.866;7.986;2022-12-17T01:55:01;100982.91;;;-10.04;94.79
4346;BME280;2186;49.866;7.986;2022-12-17T01:57:48;100987.88;;;-10.07;94.54
4346;BME280;2186;49.866;7.986;2022-12-17T02:00:32;100983.31;;;-10.11;94.29
4346;BME280;2186;49.866;7.986;2022-12-17T02:03:18;100980.06;;;-10.08;94.55
4346;BME280;2186;49.866;7.986;2022-12-17T02:06:25;100984.91;;;-10.00;94.36
4346;BME280;2186;49.866;7.986;2022-12-17T02:12:23;100987.25;;;-9.90;94.80
4346;BME280;2186;49.866;7.986;2022-12-17T02:15:18;100990.72;;;-10.02;95.56
4346;BME280;2186;49.866;7.986;2022-12-17T02:18:10;100994.41;;;-10.12;94.37
4346;BME280;2186;49.866;7.986;2022-12-17T02:20:58;100992.50;;;-10.15;94.52
4346;BME280;2186;49.866;7.986;2022-12-17T02:26:41;100998.94;;;-10.08;94.73
4346;BME280;2186;49.866;7.986;2022-12-17T02:29:30;100998.25;;;-10.05;96.32
4346;BME280;2186;49.866;7.986;2022-12-17T02:32:18;101001.22;;;-10.12;94.89
4346;BME280;2186;49.866;7.986;2022-12-17T02:35:11;101013.56;;;-10.07;95.23
4346;BME280;2186;49.866;7.986;2022-12-17T02:37:57;101011.69;;;-9.96;95.91
4346;BME280;2186;49.866;7.986;2022-12-17T02:40:43;101011.19;;;-10.04;95.75
4346;BME280;2186;49.866;7.986;2022-12-17T02:43:31;101008.44;;;-9.94;96.03
4346;BME280;2186;49.866;7.986;2022-12-17T02:46:18;101010.38;;;-9.90;96.13
4346;BME280;2186;49.866;7.986;2022-12-17T02:49:04;101005.66;;;-9.83;96.07
4346;BME280;2186;49.866;7.986;2022-12-17T02:51:49;101011.88;;;-10.06;95.29
4346;BME280;2186;49.866;7.986;2022-12-17T02:54:34;101012.59;;;-9.96;96.18
4346;BME280;2186;49.866;7.986;2022-12-17T02:57:19;101010.00;;;-9.96;96.82
4346;BME280;2186;49.866;7.986;2022-12-17T03:00:09;101018.41;;;-9.98;96.37
4346;BME280;2186;49.866;7.986;2022-12-17T03:02:54;101024.84;;;-9.92;96.38
4346;BME280;2186;49.866;7.986;2022-12-17T03:05:39;101022.06;;;-9.95;96.33
4346;BME280;2186;49.866;7.986;2022-12-17T03:08:24;101024.75;;;-9.93;94.79
4346;BME280;2186;49.866;7.986;2022-12-17T03:11:09;101023.34;;;-10.01;95.27
4346;BME280;2186;49.866;7.986;2022-12-17T03:13:54;101029.38;;;-10.14;95.01
4346;BME280;2186;49.866;7.986;2022-12-17T03:16:40;101034.91;;;-10.08;95.46
4346;BME280;2186;49.866;7.986;2022-12-17T03:19:25;101032.53;;;-10.18;93.98
4346;BME280;2186;49.866;7.986;2022-12-17T03:22:10;101030.88;;;-10.31;94.51
4346;BME280;2186;49.866;7.986;2022-12-17T03:24:55;101037.31;;;-10.24;94.32
4346;BME280;2186;49.866;7.986;2022-12-17T03:27:40;101040.66;;;-10.38;93.13
4346;BME280;2186;49.866;7.986;2022-12-17T03:30:24;101044.22;;;-10.36;93.09
4346;BME280;2186;49.866;7.986;2022-12-17T03:33:14;101044.81;;;-10.27;94.46
4346;BME280;2186;49.866;7.986;2022-12-17T03:36:00;101052.09;;;-10.33;95.11
4346;BME280;2186;49.866;7.986;2022-12-17T03:38:52;101047.97;;;-10.31;94.53
4346;BME280;2186;49.866;7.986;2022-12-17T03:41:39;101051.47;;;-10.42;94.53
4346;BME280;2186;49.866;7.986;2022-12-17T03:44:23;101053.34;;;-10.53;94.76
4346;BME280;2186;49.866;7.986;2022-12-17T03:47:08;101055.53;;;-10.46;94.55
4346;BME280;2186;49.866;7.986;2022-12-17T03:49:53;101051.81;;;-10.38;94.83
4346;BME280;2186;49.866;7.986;2022-12-17T03:52:38;101053.41;;;-10.40;95.50
4346;BME280;2186;49.866;7.986;2022-12-17T03:55:23;101058.81;;;-10.35;94.66
4346;BME280;2186;49.866;7.986;2022-12-17T03:58:08;101067.59;;;-10.45;95.38
4346;BME280;2186;49.866;7.986;2022-12-17T04:00:53;101062.88;;;-10.39;95.06
4346;BME280;2186;49.866;7.986;2022-12-17T04:03:38;101067.66;;;-10.57;94.26
4346;BME280;2186;49.866;7.986;2022-12-17T04:06:22;101063.84;;;-10.50;93.87
4346;BME280;2186;49.866;7.986;2022-12-17T04:09:07;101059.47;;;-10.51;94.14
4346;BME280;2186;49.866;7.986;2022-12-17T04:11:52;101061.38;;;-10.49;93.54
4346;BME280;2186;49.866;7.986;2022-12-17T04:14:37;101061.16;;;-10.52;93.64
4346;BME280;2186;49.866;7.986;2022-12-17T04:17:22;101061.72;;;-10.56;94.62
4346;BME280;2186;49.866;7.986;2022-12-17T04:20:07;101077.56;;;-10.50;93.80
4346;BME280;2186;49.866;7.986;2022-12-17T04:22:52;101079.50;;;-10.59;94.24
4346;BME280;2186;49.866;7.986;2022-12-17T04:25:37;101083.28;;;-10.54;94.66
4346;BME280;2186;49.866;7.986;2022-12-17T04:28:22;101084.53;;;-10.60;94.02
4346;BME280;2186;49.866;7.986;2022-12-17T04:31:07;101085.03;;;-10.66;93.68
4346;BME280;2186;49.866;7.986;2022-12-17T04:33:52;101092.72;;;-10.66;93.15
4346;BME280;2186;49.866;7.986;2022-12-17T04:36:38;101089.72;;;-10.72;93.88
4346;BME280;2186;49.866;7.986;2022-12-17T04:39:23;101095.78;;;-10.58;93.71
4346;BME280;2186;49.866;7.986;2022-12-17T04:42:08;101098.75;;;-10.65;94.37
4346;BME280;2186;49.866;7.986;2022-12-17T04:44:53;101098.09;;;-10.74;94.57
4346;BME280;2186;49.866;7.986;2022-12-17T04:47:38;101107.00;;;-10.69;94.45
4346;BME280;2186;49.866;7.986;2022-12-17T04:50:23;101108.47;;;-10.73;93.55
4346;BME280;2186;49.866;7.986;2022-12-17T04:53:09;101109.50;;;-10.83;93.65
4346;BME280;2186;49.866;7.986;2022-12-17T04:55:54;101113.22;;;-10.91;92.96
4346;BME280;2186;49.866;7.986;2022-12-17T04:58:39;101115.44;;;-10.84;93.45
4346;BME280;2186;49.866;7.986;2022-12-17T05:01:25;101108.63;;;-10.83;93.64
4346;BME280;2186;49.866;7.986;2022-12-17T05:04:10;101112.22;;;-10.81;95.18
4346;BME280;2186;49.866;7.986;2022-12-17T05:06:55;101110.53;;;-10.81;94.08
4346;BME280;2186;49.866;7.986;2022-12-17T05:09:40;101130.41;;;-10.90;92.55
4346;BME280;2186;49.866;7.986;2022-12-17T05:12:25;101123.91;;;-10.85;93.61
4346;BME280;2186;49.866;7.986;2022-12-17T05:15:09;101128.03;;;-10.75;94.27
4346;BME280;2186;49.866;7.986;2022-12-17T05:18:03;101128.50;;;-10.81;94.12
4346;BME280;2186;49.866;7.986;2022-12-17T05:20:48;101127.06;;;-10.89;92.53
4346;BME280;2186;49.866;7.986;2022-12-17T05:23:33;101135.84;;;-10.85;93.75
4346;BME280;2186;49.866;7.986;2022-12-17T05:26:23;101135.06;;;-10.84;94.21
4346;BME280;2186;49.866;7.986;2022-12-17T05:29:09;101143.25;;;-10.90;93.48
4346;BME280;2186;49.866;7.986;2022-12-17T05:31:54;101145.50;;;-10.94;93.73
4346;BME280;2186;49.866;7.986;2022-12-17T05:34:40;101157.19;;;-10.98;93.52
4346;BME280;2186;49.866;7.986;2022-12-17T05:37:24;101147.31;;;-11.05;94.70
4346;BME280;2186;49.866;7.986;2022-12-17T05:40:10;101151.06;;;-10.88;93.61
4346;BME280;2186;49.866;7.986;2022-12-17T05:42:57;101147.56;;;-10.77;94.79
4346;BME280;2186;49.866;7.986;2022-12-17T05:45:43;101152.41;;;-10.82;94.79
4346;BME280;2186;49.866;7.986;2022-12-17T05:48:29;101163.41;;;-10.83;94.82
4346;BME280;2186;49.866;7.986;2022-12-17T05:51:14;101164.75;;;-10.76;94.60
4346;BME280;2186;49.866;7.986;2022-12-17T05:54:04;101164.00;;;-10.98;93.33
4346;BME280;2186;49.866;7.986;2022-12-17T05:56:49;101166.56;;;-10.87;93.92
4346;BME280;2186;49.866;7.986;2022-12-17T05:59:34;101165.47;;;-10.90;94.41
4346;BME280;2186;49.866;7.986;2022-12-17T06:02:19;101166.06;;;-11.06;93.51
4346;BME280;2186;49.866;7.986;2022-12-17T06:05:04;101169.59;;;-10.92;94.21
4346;BME280;2186;49.866;7.986;2022-12-17T06:07:50;101165.34;;;-10.80;96.47
4346;BME280;2186;49.866;7.986;2022-12-17T06:10:35;101177.00;;;-10.72;95.40
4346;BME280;2186;49.866;7.986;2022-12-17T06:13:19;101194.31;;;-10.69;95.35
4346;BME280;2186;49.866;7.986;2022-12-17T06:16:04;101189.44;;;-10.78;94.18
4346;BME280;2186;49.866;7.986;2022-12-17T06:18:50;101188.66;;;-10.77;94.58
4346;BME280;2186;49.866;7.986;2022-12-17T06:21:35;101192.41;;;-10.72;94.96
4346;BME280;2186;49.866;7.986;2022-12-17T06:24:20;101205.63;;;-10.79;94.73
4346;BME280;2186;49.866;7.986;2022-12-17T06:27:11;101200.59;;;-10.78;94.38
4346;BME280;2186;49.866;7.986;2022-12-17T06:29:56;101210.19;;;-10.75;94.75
4346;BME280;2186;49.866;7.986;2022-12-17T06:32:44;101212.53;;;-10.78;94.46
4346;BME280;2186;49.866;7.986;2022-12-17T06:35:30;101217.88;;;-10.75;94.44
4346;BME280;2186;49.866;7.986;2022-12-17T06:38:15;101228.72;;;-10.79;94.17
4346;BME280;2186;49.866;7.986;2022-12-17T06:41:00;101218.44;;;-10.67;95.08
4346;BME280;2186;49.866;7.986;2022-12-17T06:43:45;101217.41;;;-10.69;94.87
4346;BME280;2186;49.866;7.986;2022-12-17T06:46:31;101227.13;;;-10.65;94.96
4346;BME280;2186;49.866;7.986;2022-12-17T06:49:16;101232.72;;;-10.71;94.58
4346;BME280;2186;49.866;7.986;2022-12-17T06:52:01;101238.28;;;-10.65;94.83
4346;BME280;2186;49.866;7.986;2022-12-17T06:54:45;101240.53;;;-10.69;94.54
4346;BME280;2186;49.866;7.986;2022-12-17T06:57:30;101239.88;;;-10.67;94.77
4346;BME280;2186;49.866;7.986;2022-12-17T07:00:16;101244.22;;;-10.78;94.66
4346;BME280;2186;49.866;7.986;2022-12-17T07:03:01;101243.09;;;-10.69;94.52
4346;BME280;2186;49.866;7.986;2022-12-17T07:05:46;101246.88;;;-10.64;93.98
4346;BME280;2186;49.866;7.986;2022-12-17T07:08:31;101240.97;;;-10.63;93.54
4346;BME280;2186;49.866;7.986;2022-12-17T07:11:16;101244.53;;;-10.61;95.00
4346;BME280;2186;49.866;7.986;2022-12-17T07:14:01;101256.00;;;-10.44;94.83
4346;BME280;2186;49.866;7.986;2022-12-17T07:16:45;101259.38;;;-10.57;94.68
4346;BME280;2186;49.866;7.986;2022-12-17T07:19:30;101269.75;;;-10.56;95.63
4346;BME280;2186;49.866;7.986;2022-12-17T07:22:15;101269.75;;;-10.56;96.15
4346;BME280;2186;49.866;7.986;2022-12-17T07:25:00;101280.66;;;-10.35;96.06
4346;BME280;2186;49.866;7.986;2022-12-17T07:27:54;101289.91;;;-10.25;95.85
4346;BME280;2186;49.866;7.986;2022-12-17T07:30:40;101285.53;;;-10.01;96.54
4346;BME280;2186;49.866;7.986;2022-12-17T07:33:25;101289.84;;;-9.89;97.94
4346;BME280;2186;49.866;7.986;2022-12-17T07:36:10;101290.13;;;-9.72;98.10
4346;BME280;2186;49.866;7.986;2022-12-17T07:38:54;101283.84;;;-9.51;97.76
4346;BME280;2186;49.866;7.986;2022-12-17T07:41:39;101293.38;;;-9.37;97.86
4346;BME280;2186;49.866;7.986;2022-12-17T07:44:24;101286.66;;;-9.35;97.49
4346;BME280;2186;49.866;7.986;2022-12-17T07:47:09;101292.69;;;-9.34;96.33
4346;BME280;2186;49.866;7.986;2022-12-17T07:49:53;101295.69;;;-9.28;96.91
4346;BME280;2186;49.866;7.986;2022-12-17T07:52:38;101293.44;;;-9.10;97.01
4346;BME280;2186;49.866;7.986;2022-12-17T07:55:23;101290.56;;;-9.02;97.91
4346;BME280;2186;49.866;7.986;2022-12-17T07:58:09;101300.78;;;-8.90;97.95
4346;BME280;2186;49.866;7.986;2022-12-17T08:00:58;101302.84;;;-8.84;98.79
4346;BME280;2186;49.866;7.986;2022-12-17T08:03:44;101310.41;;;-8.74;98.43
4346;BME280;2186;49.866;7.986;2022-12-17T08:06:29;101309.50;;;-8.61;98.29
4346;BME280;2186;49.866;7.986;2022-12-17T08:09:14;101319.72;;;-8.63;98.36
4346;BME280;2186;49.866;7.986;2022-12-17T08:11:59;101320.09;;;-8.57;98.38
4346;BME280;2186;49.866;7.986;2022-12-17T08:14:44;101321.78;;;-8.57;98.06
4346;BME280;2186;49.866;7.986;2022-12-17T08:17:28;101324.94;;;-8.48;98.19
4346;BME280;2186;49.866;7.986;2022-12-17T08:20:13;101329.72;;;-8.26;98.95
4346;BME280;2186;49.866;7.986;2022-12-17T08:23:02;101329.81;;;-8.12;100.00
4346;BME280;2186;49.866;7.986;2022-12-17T08:25:47;101327.13;;;-8.13;100.00
4346;BME280;2186;49.866;7.986;2022-12-17T08:28:32;101333.31;;;-7.96;100.00
4346;BME280;2186;49.866;7.986;2022-12-17T08:31:18;101342.84;;;-7.95;100.00
4346;BME280;2186;49.866;7.986;2022-12-17T08:34:03;101341.69;;;-7.72;99.67
4346;BME280;2186;49.866;7.986;2022-12-17T08:36:48;101345.16;;;-7.72;99.80
4346;BME280;2186;49.866;7.986;2022-12-17T08:39:33;101351.94;;;-7.74;100.00
4346;BME280;2186;49.866;7.986;2022-12-17T08:42:18;101351.41;;;-7.68;100.00
4346;BME280;2186;49.866;7.986;2022-12-17T08:45:03;101355.84;;;-7.53;100.00
4346;BME280;2186;49.866;7.986;2022-12-17T08:47:48;101363.59;;;-7.53;100.00
4346;BME280;2186;49.866;7.986;2022-12-17T08:50:33;101359.09;;;-7.55;100.00
4346;BME280;2186;49.866;7.986;2022-12-17T08:53:17;101364.56;;;-7.51;100.00
4346;BME280;2186;49.866;7.986;2022-12-17T08:56:03;101361.44;;;-7.45;100.00
4346;BME280;2186;49.866;7.986;2022-12-17T08:58:48;101360.13;;;-7.38;100.00
4346;BME280;2186;49.866;7.986;2022-12-17T09:01:33;101371.94;;;-7.42;100.00
4346;BME280;2186;49.866;7.986;2022-12-17T09:04:18;101371.28;;;-7.25;100.00
4346;BME280;2186;49.866;7.986;2022-12-17T09:07:03;101373.69;;;-7.13;100.00
4346;BME280;2186;49.866;7.986;2022-12-17T09:09:48;101371.31;;;-7.10;100.00
4346;BME280;2186;49.866;7.986;2022-12-17T09:12:33;101370.78;;;-7.04;100.00
4346;BME280;2186;49.866;7.986;2022-12-17T09:15:18;101373.09;;;-6.94;100.00
4346;BME280;2186;49.866;7.986;2022-12-17T09:18:03;101371.50;;;-6.77;100.00
4346;BME280;2186;49.866;7.986;2022-12-17T09:20:54;101369.38;;;-6.84;100.00
4346;BME280;2186;49.866;7.986;2022-12-17T09:23:39;101374.53;;;-6.84;100.00
4346;BME280;2186;49.866;7.986;2022-12-17T09:26:24;101388.06;;;-6.74;100.00
4346;BME280;2186;49.866;7.986;2022-12-17T09:29:09;101389.75;;;-6.74;100.00
4346;BME280;2186;49.866;7.986;2022-12-17T09:31:54;101391.44;;;-6.60;100.00
4346;BME280;2186;49.866;7.986;2022-12-17T09:34:39;101382.47;;;-6.52;100.00
4346;BME280;2186;49.866;7.986;2022-12-17T09:37:23;101393.13;;;-6.46;100.00
4346;BME280;2186;49.866;7.986;2022-12-17T09:40:15;101402.66;;;-6.45;100.00
4346;BME280;2186;49.866;7.986;2022-12-17T09:43:11;101402.16;;;-6.39;100.00
4346;BME280;2186;49.866;7.986;2022-12-17T09:46:05;101406.88;;;-6.47;100.00
4346;BME280;2186;49.866;7.986;2022-12-17T09:49:11;101411.31;;;-6.44;100.00
4346;BME280;2186;49.866;7.986;2022-12-17T09:51:58;101411.88;;;-6.50;100.00
4346;BME280;2186;49.866;7.986;2022-12-17T09:54:45;101413.00;;;-6.45;100.00
4346;BME280;2186;49.866;7.986;2022-12-17T09:57:34;101405.84;;;-6.19;100.00
4346;BME280;2186;49.866;7.986;2022-12-17T10:00:27;101412.13;;;-6.45;100.00
4346;BME280;2186;49.866;7.986;2022-12-17T10:03:17;101401.25;;;-6.40;100.00
4346;BME280;2186;49.866;7.986;2022-12-17T10:06:10;101401.59;;;-6.34;100.00
4346;BME280;2186;49.866;7.986;2022-12-17T10:08:58;101396.59;;;-6.16;100.00
4346;BME280;2186;49.866;7.986;2022-12-17T10:11:44;101395.41;;;-6.21;100.00
4346;BME280;2186;49.866;7.986;2022-12-17T10:14:29;101394.78;;;-6.17;100.00
4346;BME280;2186;49.866;7.986;2022-12-17T10:17:19;101401.72;;;-6.01;100.00
4346;BME280;2186;49.866;7.986;2022-12-17T10:20:17;101405.59;;;-5.77;100.00
4346;BME280;2186;49.866;7.986;2022-12-17T10:23:04;101414.09;;;-5.79;100.00
4346;BME280;2186;49.866;7.986;2022-12-17T10:25:54;101408.00;;;-5.49;100.00
4346;BME280;2186;49.866;7.986;2022-12-17T10:28:40;101417.88;;;-5.25;100.00
4346;BME280;2186;49.866;7.986;2022-12-17T10:31:28;101424.28;;;-5.35;100.00
4346;BME280;2186;49.866;7.986;2022-12-17T10:34:18;101421.88;;;-5.32;100.00
4346;BME280;2186;49.866;7.986;2022-12-17T10:37:05;101414.19;;;-5.47;100.00
4346;BME280;2186;49.866;7.986;2022-12-17T10:39:58;101418.69;;;-5.59;100.00
4346;BME280;2186;49.866;7.986;2022-12-17T10:42:45;101414.72;;;-5.36;100.00
4346;BME280;2186;49.866;7.986;2022-12-17T10:45:32;101419.00;;;-5.37;100.00
4346;BME280;2186;49.866;7.986;2022-12-17T10:48:28;101410.69;;;-5.15;100.00
4346;BME280;2186;49.866;7.986;2022-12-17T10:54:31;101406.38;;;-4.98;100.00
4346;BME280;2186;49.866;7.986;2022-12-17T10:57:33;101419.97;;;-4.86;100.00
4346;BME280;2186;49.866;7.986;2022-12-17T11:00:29;101416.09;;;-4.78;100.00
4346;BME280;2186;49.866;7.986;2022-12-17T11:06:15;101428.31;;;-4.75;100.00
4346;BME280;2186;49.866;7.986;2022-12-17T11:09:15;101422.25;;;-4.58;100.00
4346;BME280;2186;49.866;7.986;2022-12-17T11:12:04;101420.00;;;-4.68;100.00
4346;BME280;2186;49.866;7.986;2022-12-17T11:14:58;101420.00;;;-4.68;100.00
4346;BME280;2186;49.866;7.986;2022-12-17T11:17:48;101423.63;;;-4.48;100.00
4346;BME280;2186;49.866;7.986;2022-12-17T11:21:15;101418.53;;;-4.29;100.00
4346;BME280;2186;49.866;7.986;2022-12-17T11:24:06;101431.13;;;-4.19;100.00
4346;BME280;2186;49.866;7.986;2022-12-17T11:26:55;101430.53;;;-4.31;100.00
4346;BME280;2186;49.866;7.986;2022-12-17T11:29:40;101427.47;;;-4.40;100.00
4346;BME280;2186;49.866;7.986;2022-12-17T11:32:28;101429.44;;;-4.36;100.00
4346;BME280;2186;49.866;7.986;2022-12-17T11:35:23;101426.56;;;-4.24;100.00
4346;BME280;2186;49.866;7.986;2022-12-17T11:41:14;101435.00;;;-4.10;100.00
4346;BME280;2186;49.866;7.986;2022-12-17T11:56:30;101434.44;;;-4.39;100.00
4346;BME280;2186;49.866;7.986;2022-12-17T12:08:31;101427.25;;;-4.44;100.00
4346;BME280;2186;49.866;7.986;2022-12-17T12:11:39;101426.91;;;-4.17;100.00
4346;BME280;2186;49.866;7.986;2022-12-17T12:14:45;101431.63;;;-4.26;100.00
4346;BME280;2186;49.866;7.986;2022-12-17T12:17:37;101440.31;;;-4.25;100.00
4346;BME280;2186;49.866;7.986;2022-12-17T12:26:39;101426.47;;;-4.08;100.00
4346;BME280;2186;49.866;7.986;2022-12-17T12:29:46;101419.44;;;-4.10;100.00
4346;BME280;2186;49.866;7.986;2022-12-17T12:32:54;101429.28;;;-4.21;100.00
4346;BME280;2186;49.866;7.986;2022-12-17T12:35:42;101435.69;;;-3.97;100.00
4346;BME280;2186;49.866;7.986;2022-12-17T12:38:32;101427.13;;;-4.12;100.00
4346;BME280;2186;49.866;7.986;2022-12-17T12:44:44;101436.47;;;-4.15;100.00
4346;BME280;2186;49.866;7.986;2022-12-17T12:47:40;101439.00;;;-4.35;100.00
4346;BME280;2186;49.866;7.986;2022-12-17T12:50:40;101433.13;;;-4.49;100.00
4346;BME280;2186;49.866;7.986;2022-12-17T12:53:29;101425.63;;;-4.42;100.00
4346;BME280;2186;49.866;7.986;2022-12-17T12:56:34;101420.69;;;-4.20;100.00
4346;BME280;2186;49.866;7.986;2022-12-17T12:59:27;101413.19;;;-4.14;100.00
4346;BME280;2186;49.866;7.986;2022-12-17T13:05:38;101412.75;;;-4.23;100.00
4346;BME280;2186;49.866;7.986;2022-12-17T13:08:19;101404.78;;;-4.44;100.00
4346;BME280;2186;49.866;7.986;2022-12-17T13:10:48;101406.69;;;-4.58;100.00
4346;BME280;2186;49.866;7.986;2022-12-17T13:15:48;101397.13;;;-4.25;100.00
4346;BME280;2186;49.866;7.986;2022-12-17T13:18:28;101393.09;;;-4.18;100.00
4346;BME280;2186;49.866;7.986;2022-12-17T13:21:21;101389.00;;;-4.31;100.00
4346;BME280;2186;49.866;7.986;2022-12-17T13:23:47;101391.47;;;-4.34;100.00
4346;BME280;2186;49.866;7.986;2022-12-17T13:29:01;101390.47;;;-4.00;100.00
4346;BME280;2186;49.866;7.986;2022-12-17T13:31:39;101389.44;;;-3.86;100.00
4346;BME280;2186;49.866;7.986;2022-12-17T13:37:12;101399.25;;;-3.61;100.00
4346;BME280;2186;49.866;7.986;2022-12-17T13:40:02;101391.69;;;-3.94;100.00
4346;BME280;2186;49.866;7.986;2022-12-17T13:42:38;101389.75;;;-4.15;100.00
4346;BME280;2186;49.866;7.986;2022-12-17T13:45:05;101402.00;;;-4.31;100.00
4346;BME280;2186;49.866;7.986;2022-12-17T13:47:34;101387.63;;;-4.24;100.00
4346;BME280;2186;49.866;7.986;2022-12-17T13:50:03;101394.72;;;-4.20;100.00
4346;BME280;2186;49.866;7.986;2022-12-17T13:53:10;101398.66;;;-3.93;100.00
4346;BME280;2186;49.866;7.986;2022-12-17T13:55:38;101400.75;;;-4.21;100.00
4346;BME280;2186;49.866;7.986;2022-12-17T13:58:05;101398.44;;;-4.15;100.00
4346;BME280;2186;49.866;7.986;2022-12-17T14:00:31;101410.09;;;-4.07;100.00
4346;BME280;2186;49.866;7.986;2022-12-17T14:03:08;101405.88;;;-4.23;100.00
4346;BME280;2186;49.866;7.986;2022-12-17T14:05:37;101408.16;;;-4.11;100.00
4346;BME280;2186;49.866;7.986;2022-12-17T14:08:07;101410.16;;;-4.23;100.00
4346;BME280;2186;49.866;7.986;2022-12-17T14:10:37;101414.75;;;-4.18;100.00
4346;BME280;2186;49.866;7.986;2022-12-17T14:13:13;101419.19;;;-4.15;100.00
4346;BME280;2186;49.866;7.986;2022-12-17T14:15:46;101418.38;;;-4.50;100.00
4346;BME280;2186;49.866;7.986;2022-12-17T14:18:15;101424.03;;;-4.23;100.00
4346;BME280;2186;49.866;7.986;2022-12-17T14:20:43;101425.03;;;-4.71;100.00
4346;BME280;2186;49.866;7.986;2022-12-17T14:23:20;101425.78;;;-4.73;100.00
4346;BME280;2186;49.866;7.986;2022-12-17T14:25:47;101433.88;;;-4.67;100.00
4346;BME280;2186;49.866;7.986;2022-12-17T14:34:04;101435.03;;;-4.44;100.00
4346;BME280;2186;49.866;7.986;2022-12-17T14:36:38;101433.72;;;-4.70;100.00
4346;BME280;2186;49.866;7.986;2022-12-17T14:39:27;101436.94;;;-4.92;100.00
4346;BME280;2186;49.866;7.986;2022-12-17T14:41:56;101434.69;;;-4.68;100.00
4346;BME280;2186;49.866;7.986;2022-12-17T14:45:29;101440.31;;;-5.10;100.00
4346;BME280;2186;49.866;7.986;2022-12-17T14:47:59;101439.19;;;-5.31;100.00
4346;BME280;2186;49.866;7.986;2022-12-17T14:50:35;101439.66;;;-5.22;100.00
4346;BME280;2186;49.866;7.986;2022-12-17T14:53:21;101441.94;;;-5.12;100.00
4346;BME280;2186;49.866;7.986;2022-12-17T14:55:54;101444.22;;;-5.18;100.00
4346;BME280;2186;49.866;7.986;2022-12-17T14:58:22;101440.09;;;-5.30;100.00
4346;BME280;2186;49.866;7.986;2022-12-17T15:01:04;101443.34;;;-5.18;100.00
4346;BME280;2186;49.866;7.986;2022-12-17T15:03:36;101447.47;;;-5.05;100.00
4346;BME280;2186;49.866;7.986;2022-12-17T15:06:05;101456.09;;;-4.72;100.00
4346;BME280;2186;49.866;7.986;2022-12-17T15:08:35;101448.97;;;-4.77;100.00
4346;BME280;2186;49.866;7.986;2022-12-17T15:11:03;101453.28;;;-4.77;100.00
4346;BME280;2186;49.866;7.986;2022-12-17T15:13:29;101459.78;;;-4.67;100.00
4346;BME280;2186;49.866;7.986;2022-12-17T15:15:56;101453.22;;;-4.27;100.00
4346;BME280;2186;49.866;7.986;2022-12-17T15:18:23;101458.78;;;-4.53;100.00
4346;BME280;2186;49.866;7.986;2022-12-17T15:20:49;101462.84;;;-4.92;100.00
4346;BME280;2186;49.866;7.986;2022-12-17T15:23:18;101465.75;;;-5.02;100.00
4346;BME280;2186;49.866;7.986;2022-12-17T15:25:46;101468.34;;;-5.19;100.00
4346;BME280;2186;49.866;7.986;2022-12-17T15:28:13;101468.81;;;-5.26;100.00
4346;BME280;2186;49.866;7.986;2022-12-17T15:30:40;101465.84;;;-5.01;100.00
4346;BME280;2186;49.866;7.986;2022-12-17T15:33:07;101471.59;;;-4.90;100.00
4346;BME280;2186;49.866;7.986;2022-12-17T15:35:34;101479.09;;;-4.95;100.00
4346;BME280;2186;49.866;7.986;2022-12-17T15:38:02;101478.94;;;-4.98;100.00
4346;BME280;2186;49.866;7.986;2022-12-17T15:40:28;101479.53;;;-5.20;100.00